createdAt,value
2024-03-02T00:02:13.588Z,100029.59
2024-03-02T00:05:23.924Z,100026.13
2024-03-02T00:08:27.475Z,100027.75
2024-03-02T00:11:30.351Z,100029.97
2024-03-02T00:14:33.276Z,100029.97
2024-03-02T00:17:36.061Z,100014.97
2024-03-02T00:20:38.809Z,100013.50
2024-03-02T00:23:41.681Z,100012.94
2024-03-02T00:26:46.726Z,99999.91
2024-03-02T00:29:49.504Z,99998.50
2024-03-02T00:32:54.565Z,99994.84
2024-03-02T00:35:57.868Z,99990.59
2024-03-02T00:39:00.807Z,99994.03
2024-03-02T00:42:03.856Z,100003.81
2024-03-02T00:45:09.406Z,99999.31
2024-03-02T00:48:12.228Z,99999.53
2024-03-02T00:51:14.949Z,99991.81
2024-03-02T00:54:21.771Z,99992.59
2024-03-02T00:57:27.320Z,99987.09
2024-03-02T01:00:30.132Z,99996.84
2024-03-02T01:03:33.910Z,99995.81
2024-03-02T01:06:37.453Z,100002.13
2024-03-02T01:09:40.284Z,99999.47
2024-03-02T01:12:43.027Z,100000.06
2024-03-02T01:15:45.829Z,100000.47
2024-03-02T01:18:49.209Z,100002.13
2024-03-02T01:21:52.259Z,99998.47
2024-03-02T01:24:55.570Z,100002.94
2024-03-02T01:27:58.286Z,100010.22
2024-03-02T01:31:01.143Z,100002.72
2024-03-02T01:34:04.227Z,100004.97
2024-03-02T01:37:07.460Z,100016.97
2024-03-02T01:40:11.270Z,100014.13
2024-03-02T01:43:14.069Z,100010.06
2024-03-02T01:46:16.885Z,100011.72
2024-03-02T01:49:20.066Z,100003.00
2024-03-02T01:52:22.831Z,100008.28
2024-03-02T01:55:25.952Z,100011.13
2024-03-02T01:58:29.126Z,100010.53
2024-03-02T02:01:32.447Z,100006.25
2024-03-02T02:04:35.220Z,100000.97
2024-03-02T02:07:38.519Z,100013.56
2024-03-02T02:10:41.399Z,100005.03
2024-03-02T02:13:44.189Z,100012.75
2024-03-02T02:16:47.233Z,100010.72
2024-03-02T02:19:49.989Z,100013.56
2024-03-02T02:23:03.891Z,100012.94
2024-03-02T02:26:06.769Z,100008.84
2024-03-02T02:29:09.423Z,100002.97
2024-03-02T02:32:12.183Z,100004.81
2024-03-02T02:35:15.205Z,100015.38
2024-03-02T02:38:17.981Z,100010.69
2024-03-02T02:41:20.763Z,100004.81
2024-03-02T02:44:23.398Z,100004.00
2024-03-02T02:47:27.540Z,100004.59
2024-03-02T02:50:30.376Z,99992.63
2024-03-02T02:53:33.007Z,99989.97
2024-03-02T02:56:35.673Z,99992.81
2024-03-02T02:59:38.424Z,99993.03
2024-03-02T03:02:45.107Z,99994.88
2024-03-02T03:05:47.851Z,99990.00
2024-03-02T03:08:50.706Z,99984.53
2024-03-02T03:11:53.446Z,99993.06
2024-03-02T03:14:56.610Z,99988.16
2024-03-02T03:17:59.371Z,99987.19
2024-03-02T03:21:02.171Z,99988.78
2024-03-02T03:24:05.273Z,99986.97
2024-03-02T03:27:08.280Z,99983.72
2024-03-02T03:30:11.630Z,99981.50
2024-03-02T03:33:14.878Z,99983.53
2024-03-02T03:36:17.608Z,99985.53
2024-03-02T03:39:20.301Z,99992.06
2024-03-02T03:42:23.074Z,99994.06
2024-03-02T03:45:27.290Z,99995.91
2024-03-02T03:48:32.130Z,99993.69
2024-03-02T03:51:35.355Z,99995.91
2024-03-02T03:54:39.771Z,99992.84
2024-03-02T03:57:45.544Z,100001.78
2024-03-02T04:00:48.324Z,100013.16
2024-03-02T04:03:51.093Z,100013.34
2024-03-02T04:06:53.807Z,100013.78
2024-03-02T04:09:56.720Z,100010.53
2024-03-02T04:12:59.489Z,100015.38
2024-03-02T04:16:02.275Z,99997.53
2024-03-02T04:19:05.334Z,100006.47
2024-03-02T04:22:15.417Z,100014.78
2024-03-02T04:25:24.130Z,100011.53
2024-03-02T04:28:26.850Z,100016.44
2024-03-02T04:31:30.086Z,100010.53
2024-03-02T04:34:32.764Z,100017.63
2024-03-02T04:37:36.062Z,100016.41
2024-03-02T04:40:38.730Z,100007.69
2024-03-02T04:43:41.626Z,100016.00
2024-03-02T04:46:44.397Z,100019.88
2024-03-02T04:49:47.529Z,100019.09
2024-03-02T04:52:50.228Z,100024.56
2024-03-02T04:56:25.070Z,100037.56
2024-03-02T04:59:27.911Z,100036.75
2024-03-02T05:02:30.526Z,100033.88
2024-03-02T05:05:33.237Z,100035.13
2024-03-02T05:08:35.990Z,100036.94
2024-03-02T05:11:38.734Z,100042.63
2024-03-02T05:14:41.428Z,100030.63
2024-03-02T05:17:44.523Z,100045.47
2024-03-02T05:20:47.338Z,100036.75
2024-03-02T05:23:50.006Z,100041.59
2024-03-02T05:26:52.661Z,100039.97
2024-03-02T05:29:59.511Z,100042.41
2024-03-02T05:33:02.539Z,100040.78
2024-03-02T05:36:06.483Z,100053.38
2024-03-02T05:39:11.444Z,100055.22
2024-03-02T05:42:14.128Z,100060.72
2024-03-02T05:45:17.925Z,100060.28
2024-03-02T05:48:20.821Z,100058.47
2024-03-02T05:51:23.527Z,100056.84
2024-03-02T05:54:26.248Z,100055.63
2024-03-02T05:57:40.314Z,100057.66
2024-03-02T06:00:43.697Z,100064.78
2024-03-02T06:03:46.484Z,100075.94
2024-03-02T06:06:50.858Z,100075.09
2024-03-02T06:09:53.918Z,100078.34
2024-03-02T06:12:56.817Z,100086.50
2024-03-02T06:15:59.817Z,100091.56
2024-03-02T06:19:03.582Z,100089.75
2024-03-02T06:22:06.915Z,100089.34
2024-03-02T06:25:09.860Z,100100.09
2024-03-02T06:28:12.688Z,100103.75
2024-03-02T06:31:15.511Z,100102.13
2024-03-02T06:34:18.747Z,100107.41
2024-03-02T06:37:21.457Z,100111.69
2024-03-02T06:40:24.118Z,100112.09
2024-03-02T06:43:26.880Z,100116.75
2024-03-02T06:46:29.568Z,100118.59
2024-03-02T06:49:32.202Z,100118.75
2024-03-02T06:52:34.863Z,100121.06
2024-03-02T06:55:37.633Z,100121.41
2024-03-02T06:58:40.330Z,100121.44
2024-03-02T07:01:44.077Z,100123.66
2024-03-02T07:04:47.062Z,100131.59
2024-03-02T07:07:49.798Z,100140.75
2024-03-02T07:10:52.466Z,100140.94
2024-03-02T07:13:55.208Z,100145.63
2024-03-02T07:16:57.951Z,100141.97
2024-03-02T07:20:00.955Z,100146.22
2024-03-02T07:23:03.814Z,100145.22
2024-03-02T07:29:13.301Z,100134.66
2024-03-02T07:32:16.209Z,100137.25
2024-03-02T07:35:19.422Z,100139.34
2024-03-02T07:38:23.199Z,100141.53
2024-03-02T07:41:26.652Z,100153.16
2024-03-02T07:44:29.366Z,100150.28
2024-03-02T07:47:32.137Z,100152.34
2024-03-02T07:50:36.281Z,100154.59
2024-03-02T07:53:38.964Z,100148.25
2024-03-02T07:56:41.696Z,100152.34
2024-03-02T07:59:44.698Z,100148.69
2024-03-02T08:02:47.627Z,100152.56
2024-03-02T08:05:50.300Z,100141.34
2024-03-02T08:08:52.997Z,100148.88
2024-03-02T08:11:56.006Z,100150.47
2024-03-02T08:14:58.766Z,100155.78
2024-03-02T08:18:01.568Z,100151.91
2024-03-02T08:21:04.578Z,100153.75
2024-03-02T08:24:08.002Z,100150.28
2024-03-02T08:27:10.721Z,100143.13
2024-03-02T08:30:14.180Z,100153.72
2024-03-02T08:33:17.062Z,100151.00
2024-03-02T08:36:20.852Z,100154.84
2024-03-02T08:39:23.778Z,100160.69
2024-03-02T08:42:26.921Z,100164.50
2024-03-02T08:45:30.015Z,100168.56
2024-03-02T08:48:32.846Z,100173.28
2024-03-02T08:51:35.739Z,100177.69
2024-03-02T08:54:41.709Z,100172.34
2024-03-02T08:57:44.721Z,100182.31
2024-03-02T09:00:48.709Z,100175.00
2024-03-02T09:03:51.867Z,100176.75
2024-03-02T09:06:54.674Z,100176.00
2024-03-02T09:09:57.678Z,100182.22
2024-03-02T09:13:01.310Z,100183.94
2024-03-02T09:16:05.414Z,100175.16
2024-03-02T09:19:08.809Z,100186.94
2024-03-02T09:22:11.574Z,100182.91
2024-03-02T09:25:14.604Z,100188.06
2024-03-02T09:28:17.636Z,100187.94
2024-03-02T09:31:20.776Z,100178.09
2024-03-02T09:34:23.924Z,100183.66
2024-03-02T09:37:28.000Z,100178.53
2024-03-02T09:40:31.018Z,100189.94
2024-03-02T09:43:34.033Z,100182.72
2024-03-02T09:46:37.761Z,100185.59
2024-03-02T09:49:41.363Z,100185.47
2024-03-02T09:52:44.671Z,100183.84
2024-03-02T09:55:48.361Z,100186.72
2024-03-02T09:58:51.410Z,100194.50
2024-03-02T10:02:02.354Z,100196.22
2024-03-02T10:05:05.582Z,100192.03
2024-03-02T10:08:08.522Z,100198.22
2024-03-02T10:11:12.195Z,100197.97
2024-03-02T10:14:15.235Z,100200.53
2024-03-02T10:17:19.444Z,100197.97
2024-03-02T10:20:26.656Z,100194.28
2024-03-02T10:23:29.373Z,100197.19
2024-03-02T10:26:32.244Z,100199.72
2024-03-02T10:29:34.973Z,100193.22
2024-03-02T10:32:39.189Z,100200.19
2024-03-02T10:35:42.281Z,100195.41
2024-03-02T10:38:46.643Z,100196.38
2024-03-02T10:41:53.350Z,100207.00
2024-03-02T10:44:56.740Z,100201.25
2024-03-02T10:48:02.037Z,100197.91
2024-03-02T10:51:05.734Z,100198.31
2024-03-02T10:54:08.417Z,100199.78
2024-03-02T10:57:13.736Z,100197.69
2024-03-02T11:00:16.694Z,100201.91
2024-03-02T11:03:20.107Z,100190.50
2024-03-02T11:06:24.050Z,100192.56
2024-03-02T11:09:29.960Z,100190.81
2024-03-02T11:13:08.194Z,100191.19
2024-03-02T11:16:23.605Z,100187.44
2024-03-02T11:19:27.485Z,100183.56
2024-03-02T11:22:31.164Z,100184.28
2024-03-02T11:25:34.133Z,100168.03
2024-03-02T11:28:38.174Z,100165.63
2024-03-02T11:32:01.767Z,100165.25
2024-03-02T11:35:04.940Z,100164.25
2024-03-02T11:38:08.486Z,100164.97
2024-03-02T11:41:12.493Z,100161.69
2024-03-02T11:44:16.335Z,100160.41
2024-03-02T11:47:19.399Z,100164.81
2024-03-02T11:50:41.443Z,100159.47
2024-03-02T11:53:47.419Z,100161.16
2024-03-02T11:56:50.166Z,100154.94
2024-03-02T11:59:53.305Z,100156.44
2024-03-02T12:03:03.312Z,100153.78
2024-03-02T12:06:06.322Z,100154.94
2024-03-02T12:09:12.901Z,100154.81
2024-03-02T12:12:22.205Z,100147.06
2024-03-02T12:15:29.286Z,100143.22
2024-03-02T12:18:32.142Z,100148.16
2024-03-02T12:21:34.961Z,100148.84
2024-03-02T12:24:38.660Z,100146.13
2024-03-02T12:27:42.007Z,100149.72
2024-03-02T12:30:44.935Z,100145.59
2024-03-02T12:33:48.029Z,100150.81
2024-03-02T12:36:54.167Z,100143.16
2024-03-02T12:39:57.179Z,100146.28
2024-03-02T12:43:00.211Z,100152.50
2024-03-02T12:46:03.505Z,100145.84
2024-03-02T12:49:11.182Z,100147.19
2024-03-02T12:52:14.720Z,100136.44
2024-03-02T12:55:17.951Z,100136.28
2024-03-02T12:58:24.329Z,100136.16
2024-03-02T13:01:27.552Z,100137.06
2024-03-02T13:04:32.176Z,100130.44
2024-03-02T13:07:35.542Z,100137.63
2024-03-02T13:10:39.275Z,100136.91
2024-03-02T13:13:42.278Z,100125.91
2024-03-02T13:16:47.878Z,100130.72
2024-03-02T13:19:55.320Z,100133.56
2024-03-02T13:22:58.556Z,100137.41
2024-03-02T13:26:01.354Z,100121.75
2024-03-02T13:29:04.187Z,100128.75
2024-03-02T13:32:07.149Z,100124.13
2024-03-02T13:35:12.482Z,100121.94
2024-03-02T13:38:15.353Z,100128.78
2024-03-02T13:41:18.051Z,100127.63
2024-03-02T13:44:21.139Z,100125.22
2024-03-02T13:47:24.045Z,100132.59
2024-03-02T13:50:27.002Z,100124.34
2024-03-02T13:53:29.981Z,100128.31
2024-03-02T13:56:33.877Z,100121.13
2024-03-02T13:59:37.274Z,100124.84
2024-03-02T14:02:41.091Z,100116.28
2024-03-02T14:05:44.742Z,100126.06
2024-03-02T14:08:49.460Z,100125.09
2024-03-02T14:11:53.000Z,100126.06
2024-03-02T14:14:59.347Z,100122.22
2024-03-02T14:18:02.222Z,100116.31
2024-03-02T14:21:05.856Z,100118.91
2024-03-02T14:24:08.702Z,100113.41
2024-03-02T14:27:20.459Z,100114.72
2024-03-02T14:30:31.333Z,100108.16
2024-03-02T14:33:34.256Z,100110.56
2024-03-02T14:36:37.214Z,100101.69
2024-03-02T14:39:40.752Z,100102.00
2024-03-02T14:42:45.320Z,100101.31
2024-03-02T14:45:48.255Z,100096.91
2024-03-02T14:48:51.419Z,100099.44
2024-03-02T14:51:54.509Z,100099.75
2024-03-02T14:54:57.353Z,100099.47
2024-03-02T14:58:00.154Z,100093.47
2024-03-02T15:01:03.231Z,100102.13
2024-03-02T15:04:06.737Z,100095.47
2024-03-02T15:07:09.669Z,100103.63
2024-03-02T15:10:12.591Z,100107.53
2024-03-02T15:13:15.687Z,100108.63
2024-03-02T15:16:18.552Z,100106.25
2024-03-02T15:19:21.465Z,100104.88
2024-03-02T15:22:24.164Z,100105.69
2024-03-02T15:25:26.883Z,100114.22
2024-03-02T15:28:29.637Z,100109.19
2024-03-02T15:31:32.685Z,100110.78
2024-03-02T15:34:35.585Z,100114.78
2024-03-02T15:37:38.393Z,100114.78
2024-03-02T15:40:41.271Z,100112.03
2024-03-02T15:43:44.277Z,100118.28
2024-03-02T15:46:47.311Z,100122.66
2024-03-02T15:49:51.049Z,100122.03
2024-03-02T15:52:53.806Z,100125.63
2024-03-02T15:55:56.518Z,100118.84
2024-03-02T15:58:59.675Z,100113.84
2024-03-02T16:02:02.630Z,100119.03
2024-03-02T16:05:05.797Z,100129.44
2024-03-02T16:08:08.681Z,100132.56
2024-03-02T16:11:11.517Z,100137.53
2024-03-02T16:14:17.512Z,100140.13
2024-03-02T16:17:20.621Z,100141.75
2024-03-02T16:20:23.443Z,100145.03
2024-03-02T16:23:26.156Z,100147.81
2024-03-02T16:26:29.062Z,100147.63
2024-03-02T16:29:31.875Z,100149.00
2024-03-02T16:32:37.660Z,100148.34
2024-03-02T16:35:40.405Z,100153.78
2024-03-02T16:38:45.001Z,100157.84
2024-03-02T16:41:48.284Z,100161.53
2024-03-02T16:44:55.851Z,100163.75
2024-03-02T16:47:59.083Z,100169.63
2024-03-02T16:51:01.991Z,100169.81
2024-03-02T16:54:05.261Z,100175.84
2024-03-02T16:57:08.428Z,100176.53
2024-03-02T17:00:12.156Z,100186.47
2024-03-02T17:03:15.081Z,100185.28
2024-03-02T17:06:17.726Z,100193.22
2024-03-02T17:09:20.356Z,100189.78
2024-03-02T17:12:23.047Z,100200.53
2024-03-02T17:15:25.719Z,100193.81
2024-03-02T17:18:29.195Z,100201.09
2024-03-02T17:21:32.480Z,100203.59
2024-03-02T17:24:35.201Z,100197.41
2024-03-02T17:27:37.906Z,100201.31
2024-03-02T17:30:40.650Z,100197.19
2024-03-02T17:33:43.640Z,100193.94
2024-03-02T17:36:46.420Z,100198.06
2024-03-02T17:39:49.329Z,100202.19
2024-03-02T17:42:52.358Z,100197.59
2024-03-02T17:45:55.344Z,100199.47
2024-03-02T17:48:58.533Z,100202.75
2024-03-02T17:52:01.759Z,100205.81
2024-03-02T17:55:06.029Z,100200.88
2024-03-02T17:58:09.077Z,100203.97
2024-03-02T18:01:13.168Z,100200.75
2024-03-02T18:04:16.313Z,100204.06
2024-03-02T18:07:19.142Z,100200.75
2024-03-02T18:10:21.923Z,100208.34
2024-03-02T18:13:25.135Z,100201.41
2024-03-02T18:16:28.361Z,100200.06
2024-03-02T18:19:32.874Z,100197.69
2024-03-02T18:22:36.362Z,100200.31
2024-03-02T18:25:39.939Z,100197.09
2024-03-02T18:28:43.023Z,100213.06
2024-03-02T18:31:45.810Z,100208.88
2024-03-02T18:34:48.755Z,100223.03
2024-03-02T18:37:51.858Z,100217.78
2024-03-02T18:40:58.883Z,100221.09
2024-03-02T18:44:01.666Z,100224.19
2024-03-02T18:47:08.105Z,100225.72
2024-03-02T18:50:11.682Z,100235.47
2024-03-02T18:53:15.163Z,100238.69
2024-03-02T18:56:17.980Z,100242.63
2024-03-02T18:59:20.908Z,100239.88
2024-03-02T19:02:23.809Z,100240.31
2024-03-02T19:05:27.286Z,100243.59
2024-03-02T19:08:31.712Z,100252.75
2024-03-02T19:11:37.550Z,100250.72
2024-03-02T19:14:40.487Z,100249.31
2024-03-02T19:17:46.628Z,100253.78
2024-03-02T19:20:49.486Z,100251.94
2024-03-02T19:23:52.599Z,100265.56
2024-03-02T19:26:55.461Z,100260.91
2024-03-02T19:29:58.775Z,100255.59
2024-03-02T19:33:01.611Z,100262.72
2024-03-02T19:36:05.558Z,100257.09
2024-03-02T19:39:09.922Z,100255.03
2024-03-02T19:42:13.017Z,100253.22
2024-03-02T19:45:16.047Z,100253.03
2024-03-02T19:48:19.187Z,100252.59
2024-03-02T19:51:22.181Z,100252.66
2024-03-02T19:54:25.074Z,100246.28
2024-03-02T19:57:30.472Z,100244.72
2024-03-02T20:00:33.589Z,100259.59
2024-03-02T20:03:36.725Z,100259.16
2024-03-02T20:06:39.880Z,100256.28
2024-03-02T20:09:42.951Z,100253.03
2024-03-02T20:12:45.776Z,100261.00
2024-03-02T20:15:48.930Z,100250.38
2024-03-02T20:18:52.391Z,100253.22
2024-03-02T20:21:55.082Z,100246.47
2024-03-02T20:24:58.168Z,100262.78
2024-03-02T20:28:01.368Z,100259.75
2024-03-02T20:31:04.675Z,100259.97
2024-03-02T20:34:07.919Z,100262.69
2024-03-02T20:37:10.719Z,100262.72
2024-03-02T20:40:16.305Z,100260.06
2024-03-02T20:43:19.234Z,100255.63
2024-03-02T20:46:22.003Z,100259.28
2024-03-02T20:49:25.171Z,100262.78
2024-03-02T20:52:28.208Z,100258.53
2024-03-02T20:55:31.212Z,100257.94
2024-03-02T20:58:33.877Z,100260.41
2024-03-02T21:01:38.313Z,100258.22
2024-03-02T21:04:43.294Z,100263.91
2024-03-02T21:07:46.290Z,100262.13
2024-03-02T21:10:50.102Z,100264.59
2024-03-02T21:13:53.009Z,100267.44
2024-03-02T21:16:56.031Z,100261.53
2024-03-02T21:19:59.031Z,100265.19
2024-03-02T21:23:01.888Z,100272.31
2024-03-02T21:26:05.042Z,100279.84
2024-03-02T21:29:09.013Z,100275.56
2024-03-02T21:32:11.783Z,100264.78
2024-03-02T21:35:16.163Z,100261.53
2024-03-02T21:38:19.181Z,100256.66
2024-03-02T21:41:21.962Z,100255.41
2024-03-02T21:44:24.897Z,100259.28
2024-03-02T21:47:27.805Z,100259.28
2024-03-02T21:50:31.797Z,100259.91
2024-03-02T21:53:34.737Z,100261.94
2024-03-02T21:56:37.667Z,100265.81
2024-03-02T21:59:40.530Z,100269.88
2024-03-02T22:02:43.262Z,100271.69
2024-03-02T22:05:45.909Z,100278.22
2024-03-02T22:08:48.641Z,100280.03
2024-03-02T22:11:51.509Z,100278.59
2024-03-02T22:14:54.280Z,100276.78
2024-03-02T22:17:57.042Z,100273.72
2024-03-02T22:20:59.933Z,100287.38
2024-03-02T22:24:02.697Z,100288.38
2024-03-02T22:27:05.630Z,100278.22
2024-03-02T22:30:08.757Z,100277.81
2024-03-02T22:33:11.850Z,100276.78
2024-03-02T22:36:14.719Z,100273.34
2024-03-02T22:39:17.774Z,100282.88
2024-03-02T22:42:20.474Z,100287.16
2024-03-02T22:45:23.142Z,100286.75
2024-03-02T22:48:25.884Z,100282.06
2024-03-02T22:51:28.783Z,100285.53
2024-03-02T22:54:31.637Z,100280.25
2024-03-02T22:57:34.498Z,100281.44
2024-03-02T23:00:49.020Z,100287.78
2024-03-02T23:03:52.405Z,100287.16
2024-03-02T23:06:55.163Z,100282.69
2024-03-02T23:09:57.996Z,100287.59
2024-03-02T23:13:00.963Z,100272.91
2024-03-02T23:16:04.543Z,100277.00
2024-03-02T23:19:07.428Z,100272.50
2024-03-02T23:22:11.566Z,100273.13
2024-03-02T23:25:15.890Z,100285.72
2024-03-02T23:28:18.753Z,100276.38
2024-03-02T23:31:21.676Z,100271.91
2024-03-02T23:34:24.571Z,100269.25
2024-03-02T23:37:29.193Z,100268.63
2024-03-02T23:40:57.405Z,100273.34
2024-03-02T23:44:02.416Z,100270.88
2024-03-02T23:47:07.021Z,100267.84
2024-03-02T23:50:10.282Z,100265.81
2024-03-02T23:53:13.178Z,100273.53
2024-03-02T23:56:16.004Z,100267.00
2024-03-02T23:59:18.833Z,100268.66
